sensor_id;sensor_type;location;lat;lon;timestamp;P1;durP1;ratioP1;P2;durP2;ratioP2
65737;SDS011;52478;51.844;6.582;2022-08-04T00:01:27;6.78;;;2.70;;
65737;SDS011;52478;51.844;6.582;2022-08-04T00:03:54;9.35;;;2.53;;
65737;SDS011;52478;51.844;6.582;2022-08-04T00:06:23;7.93;;;2.65;;
65737;SDS011;52478;51.844;6.582;2022-08-04T00:08:56;6.78;;;2.42;;
65737;SDS011;52478;51.844;6.582;2022-08-04T00:11:29;7.05;;;2.60;;
65737;SDS011;52478;51.844;6.582;2022-08-04T00:13:56;9.60;;;2.90;;
65737;SDS011;52478;51.844;6.582;2022-08-04T00:16:23;7.05;;;2.70;;
65737;SDS011;52478;51.844;6.582;2022-08-04T00:18:54;7.28;;;2.75;;
65737;SDS011;52478;51.844;6.582;2022-08-04T00:21:22;8.63;;;2.42;;
65737;SDS011;52478;51.844;6.582;2022-08-04T00:23:49;9.07;;;3.10;;
65737;SDS011;52478;51.844;6.582;2022-08-04T00:26:18;9.30;;;3.20;;
65737;SDS011;52478;51.844;6.582;2022-08-04T00:28:44;6.85;;;2.60;;
65737;SDS011;52478;51.844;6.582;2022-08-04T00:31:13;8.75;;;2.78;;
65737;SDS011;52478;51.844;6.582;2022-08-04T00:33:41;7.90;;;2.97;;
65737;SDS011;52478;51.844;6.582;2022-08-04T00:36:08;7.57;;;2.65;;
65737;SDS011;52478;51.844;6.582;2022-08-04T00:38:36;8.35;;;2.60;;
65737;SDS011;52478;51.844;6.582;2022-08-04T00:41:07;14.05;;;2.92;;
65737;SDS011;52478;51.844;6.582;2022-08-04T00:43:37;8.98;;;2.85;;
65737;SDS011;52478;51.844;6.582;2022-08-04T00:46:26;7.72;;;2.78;;
65737;SDS011;52478;51.844;6.582;2022-08-04T00:49:15;8.20;;;3.00;;
65737;SDS011;52478;51.844;6.582;2022-08-04T00:51:48;8.25;;;2.70;;
65737;SDS011;52478;51.844;6.582;2022-08-04T00:54:17;6.85;;;2.42;;
65737;SDS011;52478;51.844;6.582;2022-08-04T00:56:56;8.02;;;2.70;;
65737;SDS011;52478;51.844;6.582;2022-08-04T00:59:32;9.30;;;3.00;;
65737;SDS011;52478;51.844;6.582;2022-08-04T01:02:05;8.10;;;2.95;;
65737;SDS011;52478;51.844;6.582;2022-08-04T01:04:39;8.32;;;3.08;;
65737;SDS011;52478;51.844;6.582;2022-08-04T01:07:14;7.68;;;3.08;;
65737;SDS011;52478;51.844;6.582;2022-08-04T01:09:43;9.13;;;2.83;;
65737;SDS011;52478;51.844;6.582;2022-08-04T01:12:17;7.38;;;2.65;;
65737;SDS011;52478;51.844;6.582;2022-08-04T01:14:54;9.95;;;2.80;;
65737;SDS011;52478;51.844;6.582;2022-08-04T01:17:25;8.73;;;2.75;;
65737;SDS011;52478;51.844;6.582;2022-08-04T01:19:57;8.70;;;2.83;;
65737;SDS011;52478;51.844;6.582;2022-08-04T01:22:28;9.55;;;3.08;;
65737;SDS011;52478;51.844;6.582;2022-08-04T01:25:02;9.40;;;2.83;;
65737;SDS011;52478;51.844;6.582;2022-08-04T01:27:41;8.18;;;2.72;;
65737;SDS011;52478;51.844;6.582;2022-08-04T01:30:13;9.30;;;2.70;;
65737;SDS011;52478;51.844;6.582;2022-08-04T01:32:43;10.10;;;3.20;;
65737;SDS011;52478;51.844;6.582;2022-08-04T01:35:12;7.22;;;2.75;;
65737;SDS011;52478;51.844;6.582;2022-08-04T01:37:44;6.47;;;2.90;;
65737;SDS011;52478;51.844;6.582;2022-08-04T01:45:06;6.68;;;2.60;;
65737;SDS011;52478;51.844;6.582;2022-08-04T01:47:35;8.80;;;2.80;;
65737;SDS011;52478;51.844;6.582;2022-08-04T01:50:04;6.65;;;2.78;;
65737;SDS011;52478;51.844;6.582;2022-08-04T01:52:31;7.22;;;2.85;;
65737;SDS011;52478;51.844;6.582;2022-08-04T01:54:57;10.30;;;2.65;;
65737;SDS011;52478;51.844;6.582;2022-08-04T01:57:24;9.05;;;2.70;;
65737;SDS011;52478;51.844;6.582;2022-08-04T01:59:51;9.27;;;2.60;;
65737;SDS011;52478;51.844;6.582;2022-08-04T02:02:20;8.85;;;2.50;;
65737;SDS011;52478;51.844;6.582;2022-08-04T02:04:48;11.10;;;2.60;;
65737;SDS011;52478;51.844;6.582;2022-08-04T02:10:02;9.93;;;2.70;;
65737;SDS011;52478;51.844;6.582;2022-08-04T02:12:32;8.25;;;2.53;;
65737;SDS011;52478;51.844;6.582;2022-08-04T02:15:02;11.07;;;2.70;;
65737;SDS011;52478;51.844;6.582;2022-08-04T02:17:30;9.60;;;2.58;;
65737;SDS011;52478;51.844;6.582;2022-08-04T02:20:08;11.60;;;2.83;;
65737;SDS011;52478;51.844;6.582;2022-08-04T02:22:39;8.60;;;2.60;;
65737;SDS011;52478;51.844;6.582;2022-08-04T02:25:06;8.35;;;2.75;;
65737;SDS011;52478;51.844;6.582;2022-08-04T02:27:36;9.80;;;2.83;;
65737;SDS011;52478;51.844;6.582;2022-08-04T02:30:05;11.35;;;3.10;;
65737;SDS011;52478;51.844;6.582;2022-08-04T02:32:32;9.15;;;2.58;;
65737;SDS011;52478;51.844;6.582;2022-08-04T02:35:05;9.80;;;2.42;;
65737;SDS011;52478;51.844;6.582;2022-08-04T02:37:34;9.95;;;3.08;;
65737;SDS011;52478;51.844;6.582;2022-08-04T02:40:01;10.55;;;2.60;;
65737;SDS011;52478;51.844;6.582;2022-08-04T02:42:28;8.07;;;2.42;;
65737;SDS011;52478;51.844;6.582;2022-08-04T02:44:56;9.88;;;2.70;;
65737;SDS011;52478;51.844;6.582;2022-08-04T02:47:23;8.63;;;2.65;;
65737;SDS011;52478;51.844;6.582;2022-08-04T02:49:50;10.40;;;2.50;;
65737;SDS011;52478;51.844;6.582;2022-08-04T02:52:17;9.00;;;2.75;;
65737;SDS011;52478;51.844;6.582;2022-08-04T02:54:46;12.23;;;2.78;;
65737;SDS011;52478;51.844;6.582;2022-08-04T02:57:13;10.18;;;2.47;;
65737;SDS011;52478;51.844;6.582;2022-08-04T02:59:46;9.15;;;2.47;;
65737;SDS011;52478;51.844;6.582;2022-08-04T03:02:15;8.32;;;2.20;;
65737;SDS011;52478;51.844;6.582;2022-08-04T03:04:48;9.95;;;2.92;;
65737;SDS011;52478;51.844;6.582;2022-08-04T03:07:24;10.55;;;2.72;;
65737;SDS011;52478;51.844;6.582;2022-08-04T03:15:46;10.85;;;2.70;;
65737;SDS011;52478;51.844;6.582;2022-08-04T03:18:45;9.07;;;2.45;;
65737;SDS011;52478;51.844;6.582;2022-08-04T03:21:21;12.18;;;2.97;;
65737;SDS011;52478;51.844;6.582;2022-08-04T03:26:45;10.52;;;2.60;;
65737;SDS011;52478;51.844;6.582;2022-08-04T03:32:05;11.73;;;2.65;;
65737;SDS011;52478;51.844;6.582;2022-08-04T03:34:44;11.13;;;2.40;;
65737;SDS011;52478;51.844;6.582;2022-08-04T03:40:09;9.38;;;2.72;;
65737;SDS011;52478;51.844;6.582;2022-08-04T03:42:51;9.93;;;2.80;;
65737;SDS011;52478;51.844;6.582;2022-08-04T03:48:15;6.65;;;2.35;;
65737;SDS011;52478;51.844;6.582;2022-08-04T03:50:53;10.57;;;2.70;;
65737;SDS011;52478;51.844;6.582;2022-08-04T03:53:43;11.75;;;2.80;;
65737;SDS011;52478;51.844;6.582;2022-08-04T04:01:55;11.23;;;2.97;;
65737;SDS011;52478;51.844;6.582;2022-08-04T04:07:24;10.63;;;2.63;;
65737;SDS011;52478;51.844;6.582;2022-08-04T04:10:02;9.85;;;2.97;;
65737;SDS011;52478;51.844;6.582;2022-08-04T04:12:36;12.05;;;2.72;;
65737;SDS011;52478;51.844;6.582;2022-08-04T04:15:18;8.75;;;2.38;;
65737;SDS011;52478;51.844;6.582;2022-08-04T04:17:54;11.38;;;2.58;;
65737;SDS011;52478;51.844;6.582;2022-08-04T04:20:32;8.55;;;2.40;;
65737;SDS011;52478;51.844;6.582;2022-08-04T04:23:11;9.57;;;2.60;;
65737;SDS011;52478;51.844;6.582;2022-08-04T04:25:43;8.57;;;2.47;;
65737;SDS011;52478;51.844;6.582;2022-08-04T04:31:01;11.50;;;2.72;;
65737;SDS011;52478;51.844;6.582;2022-08-04T04:33:32;11.13;;;2.33;;
65737;SDS011;52478;51.844;6.582;2022-08-04T04:36:02;11.35;;;2.40;;
65737;SDS011;52478;51.844;6.582;2022-08-04T04:41:28;13.38;;;2.53;;
65737;SDS011;52478;51.844;6.582;2022-08-04T04:44:03;11.90;;;2.80;;
65737;SDS011;52478;51.844;6.582;2022-08-04T04:46:33;10.48;;;2.47;;
65737;SDS011;52478;51.844;6.582;2022-08-04T04:49:03;8.63;;;2.78;;
65737;SDS011;52478;51.844;6.582;2022-08-04T04:51:36;10.38;;;2.55;;
65737;SDS011;52478;51.844;6.582;2022-08-04T04:54:05;9.63;;;2.85;;
65737;SDS011;52478;51.844;6.582;2022-08-04T04:56:36;9.93;;;3.30;;
65737;SDS011;52478;51.844;6.582;2022-08-04T04:59:06;14.05;;;2.90;;
65737;SDS011;52478;51.844;6.582;2022-08-04T05:04:28;11.57;;;3.05;;
65737;SDS011;52478;51.844;6.582;2022-08-04T05:07:05;8.98;;;2.42;;
65737;SDS011;52478;51.844;6.582;2022-08-04T05:09:38;11.95;;;3.03;;
65737;SDS011;52478;51.844;6.582;2022-08-04T05:12:13;10.13;;;2.78;;
65737;SDS011;52478;51.844;6.582;2022-08-04T05:14:43;11.00;;;2.55;;
65737;SDS011;52478;51.844;6.582;2022-08-04T05:17:12;10.95;;;2.97;;
65737;SDS011;52478;51.844;6.582;2022-08-04T05:19:43;11.85;;;2.78;;
65737;SDS011;52478;51.844;6.582;2022-08-04T05:22:15;12.73;;;2.97;;
65737;SDS011;52478;51.844;6.582;2022-08-04T05:24:45;11.05;;;2.78;;
65737;SDS011;52478;51.844;6.582;2022-08-04T05:27:16;11.75;;;2.78;;
65737;SDS011;52478;51.844;6.582;2022-08-04T05:29:45;12.23;;;2.75;;
65737;SDS011;52478;51.844;6.582;2022-08-04T05:32:13;8.88;;;2.50;;
65737;SDS011;52478;51.844;6.582;2022-08-04T05:34:41;12.27;;;2.80;;
65737;SDS011;52478;51.844;6.582;2022-08-04T05:37:09;13.45;;;3.28;;
65737;SDS011;52478;51.844;6.582;2022-08-04T05:39:38;13.93;;;3.50;;
65737;SDS011;52478;51.844;6.582;2022-08-04T05:42:08;11.30;;;2.63;;
65737;SDS011;52478;51.844;6.582;2022-08-04T05:44:37;9.88;;;2.95;;
65737;SDS011;52478;51.844;6.582;2022-08-04T05:47:04;10.50;;;2.53;;
65737;SDS011;52478;51.844;6.582;2022-08-04T05:49:31;12.20;;;2.70;;
65737;SDS011;52478;51.844;6.582;2022-08-04T05:51:58;9.90;;;3.15;;
65737;SDS011;52478;51.844;6.582;2022-08-04T05:54:25;11.35;;;2.67;;
65737;SDS011;52478;51.844;6.582;2022-08-04T05:56:52;9.82;;;3.15;;
65737;SDS011;52478;51.844;6.582;2022-08-04T05:59:19;11.40;;;3.08;;
65737;SDS011;52478;51.844;6.582;2022-08-04T06:01:50;11.85;;;3.17;;
65737;SDS011;52478;51.844;6.582;2022-08-04T06:04:18;12.77;;;3.72;;
65737;SDS011;52478;51.844;6.582;2022-08-04T06:09:11;11.30;;;2.95;;
65737;SDS011;52478;51.844;6.582;2022-08-04T06:11:37;11.65;;;2.83;;
65737;SDS011;52478;51.844;6.582;2022-08-04T06:14:06;10.35;;;2.95;;
65737;SDS011;52478;51.844;6.582;2022-08-04T06:16:34;11.30;;;3.05;;
65737;SDS011;52478;51.844;6.582;2022-08-04T06:19:04;11.02;;;2.92;;
65737;SDS011;52478;51.844;6.582;2022-08-04T06:21:31;12.05;;;2.75;;
65737;SDS011;52478;51.844;6.582;2022-08-04T06:23:58;9.75;;;2.55;;
65737;SDS011;52478;51.844;6.582;2022-08-04T06:26:25;11.00;;;3.30;;
65737;SDS011;52478;51.844;6.582;2022-08-04T06:28:52;9.73;;;2.75;;
65737;SDS011;52478;51.844;6.582;2022-08-04T06:33:57;10.50;;;2.60;;
65737;SDS011;52478;51.844;6.582;2022-08-04T06:36:25;9.40;;;2.47;;
65737;SDS011;52478;51.844;6.582;2022-08-04T06:38:52;9.45;;;2.35;;
65737;SDS011;52478;51.844;6.582;2022-08-04T06:41:18;8.30;;;2.30;;
65737;SDS011;52478;51.844;6.582;2022-08-04T06:43:45;8.93;;;2.80;;
65737;SDS011;52478;51.844;6.582;2022-08-04T06:46:11;8.73;;;2.67;;
65737;SDS011;52478;51.844;6.582;2022-08-04T06:48:38;10.57;;;2.63;;
65737;SDS011;52478;51.844;6.582;2022-08-04T06:51:05;8.13;;;2.40;;
65737;SDS011;52478;51.844;6.582;2022-08-04T06:53:32;9.90;;;2.60;;
65737;SDS011;52478;51.844;6.582;2022-08-04T06:55:59;7.70;;;2.63;;
65737;SDS011;52478;51.844;6.582;2022-08-04T06:58:26;10.55;;;3.30;;
65737;SDS011;52478;51.844;6.582;2022-08-04T07:00:52;11.43;;;3.05;;
65737;SDS011;52478;51.844;6.582;2022-08-04T07:03:19;7.47;;;2.50;;
65737;SDS011;52478;51.844;6.582;2022-08-04T07:05:46;8.98;;;2.60;;
65737;SDS011;52478;51.844;6.582;2022-08-04T07:08:13;10.05;;;3.00;;
65737;SDS011;52478;51.844;6.582;2022-08-04T07:10:41;9.70;;;3.00;;
65737;SDS011;52478;51.844;6.582;2022-08-04T07:13:09;8.65;;;2.75;;
65737;SDS011;52478;51.844;6.582;2022-08-04T07:15:36;11.20;;;2.95;;
65737;SDS011;52478;51.844;6.582;2022-08-04T07:18:04;11.43;;;3.15;;
65737;SDS011;52478;51.844;6.582;2022-08-04T07:20:30;6.88;;;2.83;;
65737;SDS011;52478;51.844;6.582;2022-08-04T07:22:57;7.53;;;2.53;;
65737;SDS011;52478;51.844;6.582;2022-08-04T07:25:24;11.90;;;3.00;;
65737;SDS011;52478;51.844;6.582;2022-08-04T07:27:52;9.70;;;2.97;;
65737;SDS011;52478;51.844;6.582;2022-08-04T07:30:18;7.38;;;2.78;;
65737;SDS011;52478;51.844;6.582;2022-08-04T07:32:44;9.38;;;2.83;;
65737;SDS011;52478;51.844;6.582;2022-08-04T07:35:12;10.35;;;2.55;;
65737;SDS011;52478;51.844;6.582;2022-08-04T07:37:38;8.80;;;2.50;;
65737;SDS011;52478;51.844;6.582;2022-08-04T07:40:05;9.98;;;3.00;;
65737;SDS011;52478;51.844;6.582;2022-08-04T07:44:59;8.07;;;2.67;;
65737;SDS011;52478;51.844;6.582;2022-08-04T07:47:26;8.27;;;2.75;;
65737;SDS011;52478;51.844;6.582;2022-08-04T07:49:52;7.22;;;2.75;;
65737;SDS011;52478;51.844;6.582;2022-08-04T07:52:19;11.30;;;2.80;;
65737;SDS011;52478;51.844;6.582;2022-08-04T07:54:45;8.93;;;2.80;;
65737;SDS011;52478;51.844;6.582;2022-08-04T07:57:12;7.20;;;2.80;;
65737;SDS011;52478;51.844;6.582;2022-08-04T07:59:39;7.20;;;2.50;;
65737;SDS011;52478;51.844;6.582;2022-08-04T08:02:06;7.28;;;2.83;;
65737;SDS011;52478;51.844;6.582;2022-08-04T08:04:33;7.72;;;2.97;;
65737;SDS011;52478;51.844;6.582;2022-08-04T08:06:59;9.75;;;2.72;;
65737;SDS011;52478;51.844;6.582;2022-08-04T08:09:26;8.23;;;2.70;;
65737;SDS011;52478;51.844;6.582;2022-08-04T08:11:52;10.40;;;2.92;;
65737;SDS011;52478;51.844;6.582;2022-08-04T08:19:12;8.65;;;2.50;;
65737;SDS011;52478;51.844;6.582;2022-08-04T08:21:39;9.07;;;2.65;;
65737;SDS011;52478;51.844;6.582;2022-08-04T08:24:05;8.95;;;2.72;;
65737;SDS011;52478;51.844;6.582;2022-08-04T08:26:32;8.63;;;2.63;;
65737;SDS011;52478;51.844;6.582;2022-08-04T08:29:00;7.47;;;2.50;;
65737;SDS011;52478;51.844;6.582;2022-08-04T08:31:27;7.30;;;2.40;;
65737;SDS011;52478;51.844;6.582;2022-08-04T08:33:53;9.38;;;3.00;;
65737;SDS011;52478;51.844;6.582;2022-08-04T08:36:22;7.88;;;2.53;;
65737;SDS011;52478;51.844;6.582;2022-08-04T08:38:52;8.00;;;2.80;;
65737;SDS011;52478;51.844;6.582;2022-08-04T08:44:09;8.35;;;2.60;;
65737;SDS011;52478;51.844;6.582;2022-08-04T08:46:50;7.18;;;2.60;;
65737;SDS011;52478;51.844;6.582;2022-08-04T08:49:43;7.30;;;2.55;;
65737;SDS011;52478;51.844;6.582;2022-08-04T08:52:22;8.18;;;2.70;;
65737;SDS011;52478;51.844;6.582;2022-08-04T08:54:53;9.85;;;3.00;;
65737;SDS011;52478;51.844;6.582;2022-08-04T08:57:28;8.63;;;2.90;;
65737;SDS011;52478;51.844;6.582;2022-08-04T09:00:00;7.13;;;2.30;;
65737;SDS011;52478;51.844;6.582;2022-08-04T09:02:43;8.43;;;3.13;;
65737;SDS011;52478;51.844;6.582;2022-08-04T09:05:15;8.15;;;2.72;;
65737;SDS011;52478;51.844;6.582;2022-08-04T09:07:51;8.50;;;2.70;;
65737;SDS011;52478;51.844;6.582;2022-08-04T09:12:45;8.27;;;2.45;;
65737;SDS011;52478;51.844;6.582;2022-08-04T09:15:15;7.80;;;2.80;;
65737;SDS011;52478;51.844;6.582;2022-08-04T09:17:44;8.82;;;2.75;;
65737;SDS011;52478;51.844;6.582;2022-08-04T09:20:14;7.30;;;2.60;;
65737;SDS011;52478;51.844;6.582;2022-08-04T09:22:42;8.75;;;2.92;;
65737;SDS011;52478;51.844;6.582;2022-08-04T09:25:12;6.88;;;2.72;;
65737;SDS011;52478;51.844;6.582;2022-08-04T09:27:45;8.77;;;3.15;;
65737;SDS011;52478;51.844;6.582;2022-08-04T09:30:12;6.97;;;2.53;;
65737;SDS011;52478;51.844;6.582;2022-08-04T09:32:40;8.25;;;2.60;;
65737;SDS011;52478;51.844;6.582;2022-08-04T09:35:15;8.77;;;2.60;;
65737;SDS011;52478;51.844;6.582;2022-08-04T09:37:44;7.70;;;2.90;;
65737;SDS011;52478;51.844;6.582;2022-08-04T09:40:19;8.23;;;2.40;;
65737;SDS011;52478;51.844;6.582;2022-08-04T09:42:49;7.75;;;2.72;;
65737;SDS011;52478;51.844;6.582;2022-08-04T09:45:18;9.52;;;2.72;;
65737;SDS011;52478;51.844;6.582;2022-08-04T09:47:48;7.90;;;2.88;;
65737;SDS011;52478;51.844;6.582;2022-08-04T09:50:19;7.30;;;2.38;;
65737;SDS011;52478;51.844;6.582;2022-08-04T09:52:53;8.20;;;2.50;;
65737;SDS011;52478;51.844;6.582;2022-08-04T09:55:25;6.68;;;2.58;;
65737;SDS011;52478;51.844;6.582;2022-08-04T09:57:55;6.93;;;2.60;;
65737;SDS011;52478;51.844;6.582;2022-08-04T10:00:24;6.90;;;2.50;;
65737;SDS011;52478;51.844;6.582;2022-08-04T10:02:52;8.77;;;2.67;;
65737;SDS011;52478;51.844;6.582;2022-08-04T10:05:21;6.82;;;2.65;;
65737;SDS011;52478;51.844;6.582;2022-08-04T10:07:51;6.50;;;2.60;;
65737;SDS011;52478;51.844;6.582;2022-08-04T10:10:28;7.03;;;2.45;;
65737;SDS011;52478;51.844;6.582;2022-08-04T10:15:39;8.50;;;2.78;;
65737;SDS011;52478;51.844;6.582;2022-08-04T10:18:10;6.25;;;2.58;;
65737;SDS011;52478;51.844;6.582;2022-08-04T10:21:00;7.32;;;2.40;;
65737;SDS011;52478;51.844;6.582;2022-08-04T10:23:33;7.32;;;2.50;;
65737;SDS011;52478;51.844;6.582;2022-08-04T10:26:04;7.25;;;2.55;;
65737;SDS011;52478;51.844;6.582;2022-08-04T10:28:33;6.22;;;2.50;;
65737;SDS011;52478;51.844;6.582;2022-08-04T10:31:02;7.40;;;2.40;;
65737;SDS011;52478;51.844;6.582;2022-08-04T10:33:32;9.75;;;2.80;;
65737;SDS011;52478;51.844;6.582;2022-08-04T10:35:59;7.28;;;2.28;;
65737;SDS011;52478;51.844;6.582;2022-08-04T10:38:28;8.52;;;2.53;;
65737;SDS011;52478;51.844;6.582;2022-08-04T10:40:57;8.95;;;2.50;;
65737;SDS011;52478;51.844;6.582;2022-08-04T10:43:28;8.43;;;2.60;;
65737;SDS011;52478;51.844;6.582;2022-08-04T10:45:58;8.35;;;2.60;;
65737;SDS011;52478;51.844;6.582;2022-08-04T10:48:29;8.27;;;2.50;;
65737;SDS011;52478;51.844;6.582;2022-08-04T10:51:01;7.35;;;2.70;;
65737;SDS011;52478;51.844;6.582;2022-08-04T10:53:29;8.68;;;2.38;;
65737;SDS011;52478;51.844;6.582;2022-08-04T10:55:58;8.13;;;2.63;;
65737;SDS011;52478;51.844;6.582;2022-08-04T10:58:29;6.10;;;2.40;;
65737;SDS011;52478;51.844;6.582;2022-08-04T11:00:59;6.20;;;2.30;;
65737;SDS011;52478;51.844;6.582;2022-08-04T11:03:29;6.50;;;2.50;;
65737;SDS011;52478;51.844;6.582;2022-08-04T11:05:58;5.90;;;2.42;;
65737;SDS011;52478;51.844;6.582;2022-08-04T11:08:27;9.32;;;2.70;;
65737;SDS011;52478;51.844;6.582;2022-08-04T11:10:58;5.90;;;2.08;;
65737;SDS011;52478;51.844;6.582;2022-08-04T11:13:26;6.68;;;2.58;;
65737;SDS011;52478;51.844;6.582;2022-08-04T11:15:55;6.65;;;2.40;;
65737;SDS011;52478;51.844;6.582;2022-08-04T11:18:24;6.18;;;2.20;;
65737;SDS011;52478;51.844;6.582;2022-08-04T11:20:54;8.05;;;2.63;;
65737;SDS011;52478;51.844;6.582;2022-08-04T11:23:22;10.30;;;3.20;;
65737;SDS011;52478;51.844;6.582;2022-08-04T11:25:53;11.02;;;2.88;;
65737;SDS011;52478;51.844;6.582;2022-08-04T11:28:22;9.23;;;3.10;;
65737;SDS011;52478;51.844;6.582;2022-08-04T11:30:51;9.70;;;3.10;;
65737;SDS011;52478;51.844;6.582;2022-08-04T11:33:35;11.32;;;3.42;;
65737;SDS011;52478;51.844;6.582;2022-08-04T11:36:06;11.70;;;3.13;;
65737;SDS011;52478;51.844;6.582;2022-08-04T11:38:36;11.30;;;3.50;;
65737;SDS011;52478;51.844;6.582;2022-08-04T11:41:04;9.98;;;3.05;;
65737;SDS011;52478;51.844;6.582;2022-08-04T11:43:35;10.65;;;3.67;;
65737;SDS011;52478;51.844;6.582;2022-08-04T11:46:08;7.95;;;3.15;;
65737;SDS011;52478;51.844;6.582;2022-08-04T11:48:40;8.25;;;3.08;;
65737;SDS011;52478;51.844;6.582;2022-08-04T11:51:06;9.65;;;3.40;;
65737;SDS011;52478;51.844;6.582;2022-08-04T11:53:33;9.52;;;3.38;;
65737;SDS011;52478;51.844;6.582;2022-08-04T11:56:03;8.98;;;3.13;;
65737;SDS011;52478;51.844;6.582;2022-08-04T11:58:30;8.60;;;2.95;;
65737;SDS011;52478;51.844;6.582;2022-08-04T12:01:00;7.53;;;3.10;;
65737;SDS011;52478;51.844;6.582;2022-08-04T12:03:31;7.28;;;3.03;;
65737;SDS011;52478;51.844;6.582;2022-08-04T12:06:05;9.13;;;3.22;;
65737;SDS011;52478;51.844;6.582;2022-08-04T12:08:42;9.20;;;3.30;;
65737;SDS011;52478;51.844;6.582;2022-08-04T12:11:19;8.35;;;3.13;;
65737;SDS011;52478;51.844;6.582;2022-08-04T12:13:47;7.72;;;3.15;;
65737;SDS011;52478;51.844;6.582;2022-08-04T12:16:15;7.15;;;2.90;;
65737;SDS011;52478;51.844;6.582;2022-08-04T12:18:44;8.70;;;3.22;;
65737;SDS011;52478;51.844;6.582;2022-08-04T12:21:17;9.65;;;3.10;;
65737;SDS011;52478;51.844;6.582;2022-08-04T12:23:49;8.48;;;3.20;;
65737;SDS011;52478;51.844;6.582;2022-08-04T12:26:19;9.85;;;3.45;;
65737;SDS011;52478;51.844;6.582;2022-08-04T12:28:49;7.63;;;2.72;;
65737;SDS011;52478;51.844;6.582;2022-08-04T12:31:18;7.35;;;2.90;;
65737;SDS011;52478;51.844;6.582;2022-08-04T12:33:46;7.93;;;3.05;;
65737;SDS011;52478;51.844;6.582;2022-08-04T12:36:18;8.15;;;2.90;;
65737;SDS011;52478;51.844;6.582;2022-08-04T12:38:47;7.60;;;2.92;;
65737;SDS011;52478;51.844;6.582;2022-08-04T12:41:14;7.50;;;3.13;;
65737;SDS011;52478;51.844;6.582;2022-08-04T12:43:41;7.38;;;2.83;;
65737;SDS011;52478;51.844;6.582;2022-08-04T12:46:08;10.13;;;3.00;;
65737;SDS011;52478;51.844;6.582;2022-08-04T12:51:00;7.60;;;2.85;;
65737;SDS011;52478;51.844;6.582;2022-08-04T12:53:29;6.70;;;2.65;;
65737;SDS011;52478;51.844;6.582;2022-08-04T12:55:57;7.03;;;2.80;;
65737;SDS011;52478;51.844;6.582;2022-08-04T12:58:25;7.47;;;2.75;;
65737;SDS011;52478;51.844;6.582;2022-08-04T13:00:57;8.52;;;2.85;;
65737;SDS011;52478;51.844;6.582;2022-08-04T13:03:26;8.32;;;3.33;;
65737;SDS011;52478;51.844;6.582;2022-08-04T13:05:53;8.10;;;2.78;;
65737;SDS011;52478;51.844;6.582;2022-08-04T13:08:20;6.32;;;2.75;;
65737;SDS011;52478;51.844;6.582;2022-08-04T13:10:49;6.38;;;2.80;;
65737;SDS011;52478;51.844;6.582;2022-08-04T13:13:17;7.60;;;3.00;;
65737;SDS011;52478;51.844;6.582;2022-08-04T13:15:53;6.78;;;2.67;;
65737;SDS011;52478;51.844;6.582;2022-08-04T13:18:20;6.80;;;2.80;;
65737;SDS011;52478;51.844;6.582;2022-08-04T13:20:46;6.07;;;2.50;;
65737;SDS011;52478;51.844;6.582;2022-08-04T13:23:14;7.57;;;2.72;;
65737;SDS011;52478;51.844;6.582;2022-08-04T13:25:41;7.70;;;2.85;;
65737;SDS011;52478;51.844;6.582;2022-08-04T13:28:13;7.15;;;2.60;;
65737;SDS011;52478;51.844;6.582;2022-08-04T13:30:40;7.00;;;2.70;;
65737;SDS011;52478;51.844;6.582;2022-08-04T13:33:09;8.05;;;2.78;;
65737;SDS011;52478;51.844;6.582;2022-08-04T13:35:35;7.10;;;2.70;;
65737;SDS011;52478;51.844;6.582;2022-08-04T13:38:07;7.00;;;2.88;;
65737;SDS011;52478;51.844;6.582;2022-08-04T13:40:35;7.40;;;2.95;;
65737;SDS011;52478;51.844;6.582;2022-08-04T13:43:02;7.95;;;3.08;;
65737;SDS011;52478;51.844;6.582;2022-08-04T13:47:58;11.02;;;2.78;;
65737;SDS011;52478;51.844;6.582;2022-08-04T13:50:26;6.85;;;2.97;;
65737;SDS011;52478;51.844;6.582;2022-08-04T13:52:54;8.13;;;2.70;;
65737;SDS011;52478;51.844;6.582;2022-08-04T13:55:23;5.65;;;2.47;;
65737;SDS011;52478;51.844;6.582;2022-08-04T13:57:52;7.95;;;2.90;;
65737;SDS011;52478;51.844;6.582;2022-08-04T14:00:19;6.38;;;2.72;;
65737;SDS011;52478;51.844;6.582;2022-08-04T14:05:14;7.43;;;2.72;;
65737;SDS011;52478;51.844;6.582;2022-08-04T14:07:44;7.00;;;3.00;;
65737;SDS011;52478;51.844;6.582;2022-08-04T14:10:11;7.22;;;2.75;;
65737;SDS011;52478;51.844;6.582;2022-08-04T14:12:42;6.80;;;2.80;;
65737;SDS011;52478;51.844;6.582;2022-08-04T14:15:09;7.38;;;2.60;;
65737;SDS011;52478;51.844;6.582;2022-08-04T14:17:54;6.43;;;2.85;;
65737;SDS011;52478;51.844;6.582;2022-08-04T14:20:41;6.63;;;2.42;;
65737;SDS011;52478;51.844;6.582;2022-08-04T14:23:22;8.05;;;2.75;;
65737;SDS011;52478;51.844;6.582;2022-08-04T14:25:48;7.18;;;2.97;;
65737;SDS011;52478;51.844;6.582;2022-08-04T14:28:25;7.03;;;2.70;;
65737;SDS011;52478;51.844;6.582;2022-08-04T14:30:51;7.50;;;2.90;;
65737;SDS011;52478;51.844;6.582;2022-08-04T14:33:35;7.97;;;2.97;;
65737;SDS011;52478;51.844;6.582;2022-08-04T14:36:03;7.93;;;2.90;;
65737;SDS011;52478;51.844;6.582;2022-08-04T14:38:44;7.85;;;2.80;;
65737;SDS011;52478;51.844;6.582;2022-08-04T14:41:11;6.35;;;2.42;;
65737;SDS011;52478;51.844;6.582;2022-08-04T14:46:04;6.93;;;2.55;;
65737;SDS011;52478;51.844;6.582;2022-08-04T14:48:30;7.20;;;3.00;;
65737;SDS011;52478;51.844;6.582;2022-08-04T14:50:56;6.45;;;2.80;;
65737;SDS011;52478;51.844;6.582;2022-08-04T14:53:24;6.53;;;2.42;;
65737;SDS011;52478;51.844;6.582;2022-08-04T14:55:54;7.15;;;2.42;;
65737;SDS011;52478;51.844;6.582;2022-08-04T14:58:21;6.75;;;2.58;;
65737;SDS011;52478;51.844;6.582;2022-08-04T15:00:48;7.03;;;2.55;;
65737;SDS011;52478;51.844;6.582;2022-08-04T15:03:14;6.22;;;2.80;;
65737;SDS011;52478;51.844;6.582;2022-08-04T15:05:43;6.72;;;2.65;;
65737;SDS011;52478;51.844;6.582;2022-08-04T15:08:09;6.40;;;2.70;;
65737;SDS011;52478;51.844;6.582;2022-08-04T15:10:39;6.38;;;2.50;;
65737;SDS011;52478;51.844;6.582;2022-08-04T15:13:06;5.90;;;2.30;;
65737;SDS011;52478;51.844;6.582;2022-08-04T15:15:32;6.47;;;2.50;;
65737;SDS011;52478;51.844;6.582;2022-08-04T15:17:59;6.18;;;2.40;;
65737;SDS011;52478;51.844;6.582;2022-08-04T15:20:27;7.50;;;2.58;;
65737;SDS011;52478;51.844;6.582;2022-08-04T15:22:54;5.60;;;2.30;;
65737;SDS011;52478;51.844;6.582;2022-08-04T15:25:20;6.15;;;2.42;;
65737;SDS011;52478;51.844;6.582;2022-08-04T15:27:48;7.43;;;2.45;;
65737;SDS011;52478;51.844;6.582;2022-08-04T15:30:16;7.63;;;2.42;;
65737;SDS011;52478;51.844;6.582;2022-08-04T15:35:09;6.00;;;2.45;;
65737;SDS011;52478;51.844;6.582;2022-08-04T15:37:38;6.32;;;2.53;;
65737;SDS011;52478;51.844;6.582;2022-08-04T15:40:06;7.28;;;2.22;;
65737;SDS011;52478;51.844;6.582;2022-08-04T15:42:34;5.70;;;2.42;;
65737;SDS011;52478;51.844;6.582;2022-08-04T15:48:21;7.38;;;2.55;;
65737;SDS011;52478;51.844;6.582;2022-08-04T15:51:03;6.03;;;2.53;;
65737;SDS011;52478;51.844;6.582;2022-08-04T15:53:31;7.18;;;2.55;;
65737;SDS011;52478;51.844;6.582;2022-08-04T15:55:58;6.28;;;2.20;;
65737;SDS011;52478;51.844;6.582;2022-08-04T15:58:24;6.22;;;2.40;;
65737;SDS011;52478;51.844;6.582;2022-08-04T16:03:40;6.43;;;2.55;;
65737;SDS011;52478;51.844;6.582;2022-08-04T16:08:56;6.35;;;2.35;;
65737;SDS011;52478;51.844;6.582;2022-08-04T16:11:35;5.80;;;2.38;;
65737;SDS011;52478;51.844;6.582;2022-08-04T16:14:07;6.63;;;2.30;;
65737;SDS011;52478;51.844;6.582;2022-08-04T16:16:44;5.57;;;2.22;;
65737;SDS011;52478;51.844;6.582;2022-08-04T16:19:13;5.43;;;2.15;;
65737;SDS011;52478;51.844;6.582;2022-08-04T16:21:45;5.82;;;2.30;;
65737;SDS011;52478;51.844;6.582;2022-08-04T16:24:16;6.38;;;2.72;;
65737;SDS011;52478;51.844;6.582;2022-08-04T16:26:44;5.78;;;2.17;;